Time;durP1;ratioP1;P1;durP2;ratioP2;P2;SDS_P1;SDS_P2;PMS_P1;PMS_P2;Temp;Humidity;BMP_temperature;BMP_pressure;BME280_temperature;BME280_humidity;BME280_pressure;Samples;Min_cycle;Max_cycle;Signal;HPM_P1;HPM_P2
2022/10/30 00:00:56;;;;;;;14.05;2.95;;;;;;;;;;5071735;28;20415;-74
2022/10/30 00:03:23;;;;;;;16.65;2.35;;;;;;;;;;5071711;28;20051;-75
2022/10/30 00:05:50;;;;;;;14.35;2.33;;;;;;;;;;5071001;28;20040;-75
2022/10/30 00:08:19;;;;;;;20.45;3.22;;;;;;;;;;5071719;28;20118;-75
2022/10/30 00:10:45;;;;;;;13.32;2.53;;;;;;;;;;5071551;28;20101;-75
2022/10/30 00:13:12;;;;;;;16.77;2.75;;;;;;;;;;5071859;28;20528;-74
2022/10/30 00:15:39;;;;;;;17.60;3.53;;;;;;;;;;5071937;28;20049;-74
2022/10/30 00:18:05;;;;;;;10.57;2.42;;;;;;;;;;5071738;28;20052;-74
2022/10/30 00:20:31;;;;;;;19.10;3.05;;;;;;;;;;5070568;28;20048;-74
2022/10/30 00:22:58;;;;;;;17.00;2.38;;;;;;;;;;5071836;28;20041;-74
2022/10/30 00:25:25;;;;;;;15.07;2.45;;;;;;;;;;5071564;28;20054;-74
2022/10/30 00:27:51;;;;;;;14.75;2.47;;;;;;;;;;5071321;28;20051;-74
2022/10/30 00:30:18;;;;;;;13.93;2.67;;;;;;;;;;5071683;28;20411;-74
2022/10/30 00:32:44;;;;;;;16.15;2.53;;;;;;;;;;5071601;28;20052;-74
2022/10/30 00:35:11;;;;;;;16.58;2.97;;;;;;;;;;5071432;28;20044;-74
2022/10/30 00:37:37;;;;;;;24.65;3.83;;;;;;;;;;5071371;28;20407;-74
2022/10/30 00:40:05;;;;;;;17.63;3.28;;;;;;;;;;5071517;28;20044;-74
2022/10/30 00:42:31;;;;;;;;;;;;;;;;;;5071964;28;20373;-74
2022/10/30 00:44:58;;;;;;;14.93;2.70;;;;;;;;;;5070991;28;20327;-74
2022/10/30 00:47:36;;;;;;;14.75;2.75;;;;;;;;;;5071626;28;20044;-74
2022/10/30 00:50:18;;;;;;;14.13;2.35;;;;;;;;;;5071074;28;20049;-74
2022/10/30 00:52:53;;;;;;;16.00;2.63;;;;;;;;;;5071319;28;20040;-74
2022/10/30 00:55:26;;;;;;;17.23;2.90;;;;;;;;;;5070247;28;20045;-74
2022/10/30 00:57:53;;;;;;;16.58;3.60;;;;;;;;;;5070212;28;20056;-74
2022/10/30 01:00:21;;;;;;;14.15;3.08;;;;;;;;;;5070980;28;20699;-75
2022/10/30 01:02:48;;;;;;;19.42;3.22;;;;;;;;;;5071103;28;20048;-75
2022/10/30 01:05:16;;;;;;;17.35;2.75;;;;;;;;;;5071051;28;20050;-75
2022/10/30 01:07:43;;;;;;;18.05;3.17;;;;;;;;;;5070084;28;20037;-75
2022/10/30 01:10:10;;;;;;;22.15;3.15;;;;;;;;;;5071194;28;20053;-74
2022/10/30 01:12:37;;;;;;;15.43;2.70;;;;;;;;;;5069679;28;20603;-74
2022/10/30 01:15:04;;;;;;;18.83;3.13;;;;;;;;;;5061324;28;20057;-74
2022/10/30 01:17:30;;;;;;;14.88;2.70;;;;;;;;;;5058813;28;20061;-74
2022/10/30 01:20:08;;;;;;;12.70;2.65;;;;;;;;;;5072965;28;20052;-74
2022/10/30 01:22:35;;;;;;;18.73;2.97;;;;;;;;;;5073178;28;20041;-74
2022/10/30 01:25:10;;;;;;;19.25;2.95;;;;;;;;;;5074107;28;20143;-74
2022/10/30 01:27:55;;;;;;;15.55;2.80;;;;;;;;;;5074429;28;20044;-74
2022/10/30 01:30:25;;;;;;;19.40;3.17;;;;;;;;;;5074536;28;20053;-74
2022/10/30 01:32:51;;;;;;;17.05;2.53;;;;;;;;;;5074417;28;20074;-74
2022/10/30 01:35:21;;;;;;;16.65;2.95;;;;;;;;;;5074253;28;20053;-74
2022/10/30 01:37:52;;;;;;;18.52;3.03;;;;;;;;;;5074485;28;20049;-74
2022/10/30 01:40:19;;;;;;;18.05;2.75;;;;;;;;;;5074313;28;20052;-74
2022/10/30 01:42:51;;;;;;;21.58;3.58;;;;;;;;;;5074525;28;20131;-74
2022/10/30 01:45:23;;;;;;;18.42;3.42;;;;;;;;;;5059971;28;20369;-74
2022/10/30 01:48:04;;;;;;;18.48;2.78;;;;;;;;;;5074135;28;20054;-74
2022/10/30 01:51:03;;;;;;;15.13;2.65;;;;;;;;;;5074335;28;20044;-74
2022/10/30 01:53:32;;;;;;;14.32;2.47;;;;;;;;;;5051118;28;20139;-74
2022/10/30 01:56:08;;;;;;;21.13;3.28;;;;;;;;;;5073948;28;20055;-74
2022/10/30 01:58:38;;;;;;;13.90;2.90;;;;;;;;;;5074152;28;20040;-74
2022/10/30 02:01:04;;;;;;;21.33;3.25;;;;;;;;;;5073954;28;20044;-74
2022/10/30 02:03:31;;;;;;;10.65;2.10;;;;;;;;;;5072392;28;20052;-74
2022/10/30 02:05:57;;;;;;;14.40;2.63;;;;;;;;;;5067164;28;20041;-74
2022/10/30 02:08:23;;;;;;;17.70;3.35;;;;;;;;;;5073867;28;20048;-74
2022/10/30 02:10:51;;;;;;;13.82;2.83;;;;;;;;;;5073582;28;20052;-74
2022/10/30 02:13:17;;;;;;;14.13;2.45;;;;;;;;;;5073801;28;20048;-74
2022/10/30 02:15:44;;;;;;;16.73;2.47;;;;;;;;;;5062375;28;20063;-74
2022/10/30 02:18:10;;;;;;;21.50;3.00;;;;;;;;;;5071471;28;20074;-74
2022/10/30 02:20:37;;;;;;;17.92;3.22;;;;;;;;;;5072075;28;20052;-74
2022/10/30 02:23:04;;;;;;;18.63;2.80;;;;;;;;;;5072265;28;20045;-74
2022/10/30 02:25:31;;;;;;;15.27;2.70;;;;;;;;;;5073417;28;20442;-74
2022/10/30 02:27:58;;;;;;;16.50;2.95;;;;;;;;;;5071381;28;20123;-74
2022/10/30 02:30:24;;;;;;;19.17;3.30;;;;;;;;;;5073181;28;20066;-74
2022/10/30 02:32:50;;;;;;;14.98;2.40;;;;;;;;;;5073140;28;20052;-74
2022/10/30 02:35:17;;;;;;;17.85;3.05;;;;;;;;;;5073013;28;20059;-74
2022/10/30 02:37:46;;;;;;;18.08;2.85;;;;;;;;;;5073240;28;20413;-74
2022/10/30 02:40:12;;;;;;;16.13;2.70;;;;;;;;;;5073276;28;20409;-74
2022/10/30 02:42:38;;;;;;;13.85;2.42;;;;;;;;;;5071891;28;20056;-74
2022/10/30 02:45:05;;;;;;;14.07;2.83;;;;;;;;;;5073038;28;20060;-74
2022/10/30 02:47:32;;;;;;;23.17;4.20;;;;;;;;;;5072840;28;20037;-74
2022/10/30 02:49:59;;;;;;;17.75;3.45;;;;;;;;;;5072778;28;20091;-74
2022/10/30 02:52:25;;;;;;;15.88;2.78;;;;;;;;;;5072988;28;20052;-74
2022/10/30 02:54:51;;;;;;;16.90;2.35;;;;;;;;;;5072965;28;20049;-74
2022/10/30 02:57:18;;;;;;;19.45;3.78;;;;;;;;;;5073081;28;20389;-74
2022/10/30 02:59:44;;;;;;;17.27;3.17;;;;;;;;;;5072720;28;20049;-74
2022/10/30 03:02:10;;;;;;;14.52;2.58;;;;;;;;;;5072433;28;20480;-74
2022/10/30 03:04:37;;;;;;;15.45;2.97;;;;;;;;;;5071389;28;20131;-74
2022/10/30 03:07:03;;;;;;;14.05;3.90;;;;;;;;;;5072766;28;20044;-74
2022/10/30 03:09:29;;;;;;;18.38;3.03;;;;;;;;;;5072343;28;20052;-74
2022/10/30 03:11:56;;;;;;;15.48;2.80;;;;;;;;;;5072410;28;20508;-74
2022/10/30 03:14:22;;;;;;;16.05;3.17;;;;;;;;;;5072257;28;20049;-73
2022/10/30 03:16:51;;;;;;;17.23;3.33;;;;;;;;;;5072794;28;20045;-74
2022/10/30 03:19:18;;;;;;;17.25;3.65;;;;;;;;;;5072670;28;20048;-74
2022/10/30 03:21:44;;;;;;;21.20;3.45;;;;;;;;;;5072383;28;20044;-74
2022/10/30 03:24:10;;;;;;;15.95;3.30;;;;;;;;;;5072199;28;20054;-74
2022/10/30 03:26:37;;;;;;;16.80;2.80;;;;;;;;;;5072078;28;20051;-74
2022/10/30 03:29:03;;;;;;;16.85;3.75;;;;;;;;;;5072109;28;20508;-74
2022/10/30 03:31:30;;;;;;;17.08;3.13;;;;;;;;;;5072345;28;20049;-74
2022/10/30 03:33:57;;;;;;;15.17;2.87;;;;;;;;;;5072342;28;20052;-74
2022/10/30 03:36:24;;;;;;;14.77;3.22;;;;;;;;;;5072137;28;20285;-74
2022/10/30 03:38:50;;;;;;;17.13;3.27;;;;;;;;;;5072033;28;20054;-74
2022/10/30 03:41:16;;;;;;;21.42;3.42;;;;;;;;;;5071995;28;20295;-74
2022/10/30 03:43:43;;;;;;;12.18;3.22;;;;;;;;;;5072086;28;20044;-74
2022/10/30 03:46:10;;;;;;;13.52;2.45;;;;;;;;;;5071838;28;20052;-74
2022/10/30 03:48:36;;;;;;;14.98;3.30;;;;;;;;;;5070754;28;20049;-74
2022/10/30 03:51:03;;;;;;;17.88;3.22;;;;;;;;;;5072115;28;20054;-75
2022/10/30 03:53:30;;;;;;;21.80;3.03;;;;;;;;;;5070815;28;20054;-75
2022/10/30 03:55:57;;;;;;;13.27;2.40;;;;;;;;;;5072203;28;20139;-75
2022/10/30 03:58:24;;;;;;;14.93;2.70;;;;;;;;;;5070578;28;20598;-75
2022/10/30 04:00:50;;;;;;;14.65;3.22;;;;;;;;;;5071717;28;20052;-75
2022/10/30 04:03:17;;;;;;;15.00;2.78;;;;;;;;;;5071629;28;20491;-75
2022/10/30 04:05:43;;;;;;;15.25;3.15;;;;;;;;;;5071899;28;20055;-75
2022/10/30 04:08:11;;;;;;;20.20;3.50;;;;;;;;;;5071617;28;20040;-75
2022/10/30 04:10:44;;;;;;;13.50;2.80;;;;;;;;;;5071472;28;20066;-75
2022/10/30 04:13:12;;;;;;;15.27;3.03;;;;;;;;;;5071678;28;20086;-75
2022/10/30 04:15:38;;;;;;;18.98;3.13;;;;;;;;;;5071507;28;20135;-75
2022/10/30 04:18:05;;;;;;;19.80;2.45;;;;;;;;;;5071494;28;20578;-75
2022/10/30 04:20:32;;;;;;;12.13;2.40;;;;;;;;;;5070596;28;20040;-75
2022/10/30 04:22:59;;;;;;;17.42;3.53;;;;;;;;;;5071602;28;20060;-75
2022/10/30 04:25:27;;;;;;;18.50;2.95;;;;;;;;;;5071765;28;20043;-75
2022/10/30 04:27:54;;;;;;;20.38;3.13;;;;;;;;;;5071721;28;20057;-75
2022/10/30 04:30:23;;;;;;;18.42;2.92;;;;;;;;;;5071372;28;20559;-74
2022/10/30 04:32:51;;;;;;;17.35;3.13;;;;;;;;;;5071545;28;20455;-74
2022/10/30 04:35:17;;;;;;;;;;;;;;;;;;5071716;28;20044;-75
2022/10/30 04:37:57;;;;;;;14.40;2.65;;;;;;;;;;5071567;28;20304;-74
2022/10/30 04:40:24;;;;;;;19.02;3.28;;;;;;;;;;5071502;28;20044;-74
2022/10/30 04:42:51;;;;;;;19.70;2.97;;;;;;;;;;5070107;28;20492;-74
2022/10/30 04:45:18;;;;;;;15.23;2.67;;;;;;;;;;5071013;28;20056;-75
2022/10/30 04:47:44;;;;;;;17.02;2.40;;;;;;;;;;5071310;28;20047;-75
2022/10/30 04:50:13;;;;;;;18.02;2.83;;;;;;;;;;5071157;28;20052;-74
2022/10/30 04:52:39;;;;;;;15.02;2.45;;;;;;;;;;5075089;28;20055;-75
2022/10/30 04:55:06;;;;;;;19.05;2.97;;;;;;;;;;5075066;28;20049;-74
2022/10/30 04:57:33;;;;;;;21.33;2.75;;;;;;;;;;5075404;28;20062;-74
2022/10/30 04:59:59;;;;;;;15.10;2.63;;;;;;;;;;5075086;28;20052;-74
2022/10/30 05:02:25;;;;;;;16.45;3.42;;;;;;;;;;5074944;28;20058;-74
2022/10/30 05:04:52;;;;;;;22.35;3.55;;;;;;;;;;5075235;28;20052;-74
2022/10/30 05:07:19;;;;;;;23.80;3.25;;;;;;;;;;5075224;28;20055;-75
2022/10/30 05:09:45;;;;;;;19.05;3.13;;;;;;;;;;5074815;28;20051;-75
2022/10/30 05:12:12;;;;;;;22.75;3.22;;;;;;;;;;5074862;28;20056;-75
2022/10/30 05:14:38;;;;;;;24.08;3.55;;;;;;;;;;5074802;28;20044;-75
2022/10/30 05:17:04;;;;;;;21.13;3.03;;;;;;;;;;5074651;28;20048;-75
2022/10/30 05:19:31;;;;;;;12.50;2.20;;;;;;;;;;5074972;28;20052;-75
2022/10/30 05:21:57;;;;;;;19.15;2.83;;;;;;;;;;5073467;28;20975;-74
2022/10/30 05:24:23;;;;;;;18.63;2.83;;;;;;;;;;5074422;28;20048;-74
2022/10/30 05:26:50;;;;;;;17.25;2.65;;;;;;;;;;5074442;28;20496;-74
2022/10/30 05:29:16;;;;;;;22.15;3.30;;;;;;;;;;5074532;28;20397;-73
2022/10/30 05:31:42;;;;;;;23.95;3.80;;;;;;;;;;5074274;28;20132;-74
2022/10/30 05:34:09;;;;;;;14.40;2.63;;;;;;;;;;5074630;28;20049;-74
2022/10/30 05:36:35;;;;;;;19.38;2.80;;;;;;;;;;5074240;28;20411;-74
2022/10/30 05:39:02;;;;;;;20.02;3.10;;;;;;;;;;5074260;28;20058;-74
2022/10/30 05:41:28;;;;;;;13.88;2.78;;;;;;;;;;5074171;28;20563;-74
2022/10/30 05:43:55;;;;;;;20.80;3.42;;;;;;;;;;5074078;28;20041;-74
2022/10/30 05:46:21;;;;;;;15.38;2.50;;;;;;;;;;5073902;28;20492;-74
2022/10/30 05:48:48;;;;;;;16.90;2.65;;;;;;;;;;5073979;28;20049;-74
2022/10/30 05:51:14;;;;;;;17.25;2.90;;;;;;;;;;5074125;28;20056;-74
2022/10/30 05:53:40;;;;;;;13.77;2.38;;;;;;;;;;5073930;28;20056;-74
2022/10/30 05:56:07;;;;;;;16.80;2.63;;;;;;;;;;5074283;28;20048;-74
2022/10/30 05:58:33;;;;;;;19.67;3.60;;;;;;;;;;5073942;28;20503;-74
2022/10/30 06:01:03;;;;;;;22.13;3.10;;;;;;;;;;5072531;28;20053;-74
2022/10/30 06:03:29;;;;;;;19.55;2.80;;;;;;;;;;5072750;28;20044;-74
2022/10/30 06:05:56;;;;;;;15.40;2.80;;;;;;;;;;5073770;28;20041;-74
2022/10/30 06:08:22;;;;;;;19.33;2.92;;;;;;;;;;5073997;28;20048;-74
2022/10/30 06:10:49;;;;;;;16.85;2.72;;;;;;;;;;5073958;28;20044;-74
2022/10/30 06:13:15;;;;;;;17.52;2.97;;;;;;;;;;5073594;28;20044;-74
2022/10/30 06:15:42;;;;;;;22.20;3.08;;;;;;;;;;5072225;28;20496;-74
2022/10/30 06:18:08;;;;;;;15.02;2.33;;;;;;;;;;5073433;28;20060;-74
2022/10/30 06:20:34;;;;;;;14.02;2.45;;;;;;;;;;5073433;28;20059;-74
2022/10/30 06:23:02;;;;;;;17.52;2.83;;;;;;;;;;5073245;28;20044;-74
2022/10/30 06:25:28;;;;;;;;;;;;;;;;;;5074275;28;20421;-75
2022/10/30 06:27:55;;;;;;;17.52;3.22;;;;;;;;;;5073384;28;20291;-74
2022/10/30 06:30:22;;;;;;;14.20;2.47;;;;;;;;;;5073488;28;20090;-74
2022/10/30 06:32:48;;;;;;;17.05;2.78;;;;;;;;;;5073496;28;20052;-74
2022/10/30 06:35:15;;;;;;;17.45;2.55;;;;;;;;;;5073354;28;20044;-74
2022/10/30 06:37:46;;;;;;;19.70;2.97;;;;;;;;;;5073294;28;20396;-74
2022/10/30 06:40:12;;;;;;;21.73;3.08;;;;;;;;;;5073061;28;20055;-74
2022/10/30 06:42:42;;;;;;;14.07;2.55;;;;;;;;;;5073219;28;20045;-74
2022/10/30 06:45:09;;;;;;;17.77;2.97;;;;;;;;;;5072797;28;20067;-74
2022/10/30 06:47:36;;;;;;;14.43;2.90;;;;;;;;;;5073190;28;20041;-74
2022/10/30 06:50:06;;;;;;;19.15;2.80;;;;;;;;;;5071909;28;20048;-74
2022/10/30 06:52:33;;;;;;;18.27;2.90;;;;;;;;;;5072698;28;20049;-75
2022/10/30 06:54:59;;;;;;;13.48;2.67;;;;;;;;;;5072970;28;20058;-74
2022/10/30 06:57:26;;;;;;;17.23;2.70;;;;;;;;;;5072660;28;20049;-74
2022/10/30 06:59:52;;;;;;;15.23;2.92;;;;;;;;;;5073122;28;20049;-74
2022/10/30 07:02:18;;;;;;;16.90;2.65;;;;;;;;;;5072590;28;20048;-74
2022/10/30 07:04:45;;;;;;;16.25;2.67;;;;;;;;;;5072848;28;20102;-74
2022/10/30 07:07:12;;;;;;;23.30;2.53;;;;;;;;;;5072421;28;20048;-74
2022/10/30 07:09:38;;;;;;;18.80;3.25;;;;;;;;;;5072541;28;20041;-74
2022/10/30 07:12:05;;;;;;;16.02;3.05;;;;;;;;;;5072606;28;20055;-74
2022/10/30 07:14:32;;;;;;;18.05;2.72;;;;;;;;;;5071839;28;20051;-75
2022/10/30 07:16:59;;;;;;;12.43;2.38;;;;;;;;;;5072528;28;20406;-75
2022/10/30 07:19:25;;;;;;;14.18;2.80;;;;;;;;;;5072422;28;20407;-75
2022/10/30 07:21:51;;;;;;;14.70;2.78;;;;;;;;;;5071232;28;20052;-75
2022/10/30 07:24:18;;;;;;;17.08;2.83;;;;;;;;;;5072335;28;20059;-75
2022/10/30 07:26:44;;;;;;;19.08;2.95;;;;;;;;;;5061436;28;20048;-75
2022/10/30 07:29:10;;;;;;;16.90;2.80;;;;;;;;;;5071847;28;20044;-76
2022/10/30 07:31:37;;;;;;;16.02;2.60;;;;;;;;;;5071983;28;20480;-75
2022/10/30 07:34:14;;;;;;;;;;;;;;;;;;5072531;28;20048;-72
2022/10/30 07:36:41;;;;;;;12.15;2.80;;;;;;;;;;5066976;28;19996;-75
2022/10/30 07:39:07;;;;;;;15.18;3.00;;;;;;;;;;5051104;28;20052;-75
2022/10/30 07:41:34;;;;;;;16.00;2.80;;;;;;;;;;5050953;28;20057;-73
2022/10/30 07:44:00;;;;;;;15.27;2.88;;;;;;;;;;5051157;28;20533;-74
2022/10/30 07:46:27;;;;;;;14.15;2.75;;;;;;;;;;5067780;28;20407;-76
2022/10/30 07:48:53;;;;;;;15.73;2.45;;;;;;;;;;5067146;28;20051;-76
2022/10/30 07:51:20;;;;;;;17.88;3.10;;;;;;;;;;5050367;28;20045;-74
2022/10/30 07:53:47;;;;;;;14.02;2.80;;;;;;;;;;5050294;28;20411;-73
2022/10/30 07:56:13;;;;;;;14.93;2.90;;;;;;;;;;5049397;28;20067;-72
2022/10/30 07:58:39;;;;;;;17.45;2.60;;;;;;;;;;5050528;28;20079;-71
2022/10/30 08:01:11;;;;;;;18.92;3.45;;;;;;;;;;5050077;28;20079;-76
2022/10/30 08:03:37;;;;;;;16.23;3.22;;;;;;;;;;5067758;28;20048;-70
2022/10/30 08:06:04;;;;;;;16.17;3.13;;;;;;;;;;5069136;28;20090;-75
2022/10/30 08:08:31;;;;;;;15.70;3.30;;;;;;;;;;5067113;28;20081;-74
2022/10/30 08:10:57;;;;;;;15.27;3.28;;;;;;;;;;5060210;28;20050;-73
2022/10/30 08:13:24;;;;;;;16.38;3.05;;;;;;;;;;5071082;28;20045;-76
2022/10/30 08:15:50;;;;;;;14.30;2.47;;;;;;;;;;5069838;28;20059;-73
2022/10/30 08:18:17;;;;;;;15.98;2.97;;;;;;;;;;5062550;28;20128;-74
2022/10/30 08:20:49;;;;;;;14.50;3.10;;;;;;;;;;5065192;28;20052;-72
2022/10/30 08:23:18;;;;;;;20.52;3.22;;;;;;;;;;5070551;28;20082;-73
2022/10/30 08:25:45;;;;;;;16.40;2.97;;;;;;;;;;5071321;28;20055;-73
2022/10/30 08:28:13;;;;;;;11.00;2.28;;;;;;;;;;5075030;28;20048;-73
2022/10/30 08:30:39;;;;;;;18.27;2.65;;;;;;;;;;5071541;28;20044;-74
2022/10/30 08:33:08;;;;;;;20.98;3.17;;;;;;;;;;5062870;28;20071;-74
2022/10/30 08:35:35;;;;;;;16.08;3.00;;;;;;;;;;5075203;28;20135;-73
2022/10/30 08:38:06;;;;;;;16.90;3.45;;;;;;;;;;5070883;28;20060;-73
2022/10/30 08:40:33;;;;;;;12.70;2.20;;;;;;;;;;5062093;28;20474;-73
2022/10/30 08:42:59;;;;;;;13.77;2.72;;;;;;;;;;5060558;28;20048;-71
2022/10/30 08:45:26;;;;;;;16.30;3.10;;;;;;;;;;5060446;28;20041;-74
2022/10/30 08:48:00;;;;;;;14.50;2.67;;;;;;;;;;5065757;28;20087;-74
2022/10/30 08:50:28;;;;;;;16.70;2.72;;;;;;;;;;5062412;28;20131;-73
2022/10/30 08:52:54;;;;;;;15.17;2.87;;;;;;;;;;5056942;28;20048;-73
2022/10/30 08:55:20;;;;;;;12.60;2.70;;;;;;;;;;5067157;28;20128;-72
2022/10/30 08:57:47;;;;;;;19.98;2.85;;;;;;;;;;5067805;28;20056;-78
2022/10/30 09:00:13;;;;;;;14.18;2.38;;;;;;;;;;5062366;28;20053;-75
2022/10/30 09:02:40;;;;;;;14.45;2.45;;;;;;;;;;5068139;28;20053;-73
2022/10/30 09:05:07;;;;;;;16.95;2.67;;;;;;;;;;5061743;28;20036;-75
2022/10/30 09:07:34;;;;;;;;;;;;;;;;;;5054228;28;20053;-72
2022/10/30 09:10:01;;;;;;;14.60;2.47;;;;;;;;;;5052385;28;19921;-71
2022/10/30 09:12:27;;;;;;;17.42;2.88;;;;;;;;;;5052816;28;20052;-67
2022/10/30 09:14:53;;;;;;;15.48;2.50;;;;;;;;;;5071474;28;20057;-70
2022/10/30 09:17:20;;;;;;;14.55;2.40;;;;;;;;;;5072240;28;20060;-69
2022/10/30 09:19:46;;;;;;;10.95;2.40;;;;;;;;;;5073660;28;20060;-69
2022/10/30 09:22:13;;;;;;;18.05;3.20;;;;;;;;;;5074104;28;20148;-70
2022/10/30 09:24:40;;;;;;;16.23;2.75;;;;;;;;;;5073575;28;20052;-69
2022/10/30 09:27:06;;;;;;;12.55;2.50;;;;;;;;;;5073793;28;20044;-70
2022/10/30 09:29:34;;;;;;;11.85;2.13;;;;;;;;;;5074118;28;20049;-70
2022/10/30 09:32:01;;;;;;;15.73;2.50;;;;;;;;;;5074086;28;20119;-70
2022/10/30 09:34:28;;;;;;;12.53;2.83;;;;;;;;;;5058025;28;20055;-70
2022/10/30 09:36:54;;;;;;;8.95;2.22;;;;;;;;;;5053366;28;20053;-71
2022/10/30 09:39:20;;;;;;;11.50;2.60;;;;;;;;;;5053252;28;20503;-71
2022/10/30 09:41:53;;;;;;;14.13;2.58;;;;;;;;;;5053417;28;20057;-71
2022/10/30 09:44:34;;;;;;;11.13;2.33;;;;;;;;;;5056309;28;20502;-70
2022/10/30 09:47:16;;;;;;;17.42;2.63;;;;;;;;;;5073517;28;20045;-71
2022/10/30 09:50:09;;;;;;;11.63;2.03;;;;;;;;;;5073905;28;20127;-71
2022/10/30 09:52:41;;;;;;;13.57;3.00;;;;;;;;;;5073666;28;20071;-69
2022/10/30 09:55:15;;;;;;;9.57;2.15;;;;;;;;;;5073420;28;20056;-70
2022/10/30 09:57:45;;;;;;;15.73;2.88;;;;;;;;;;5073366;28;20488;-70
2022/10/30 10:00:13;;;;;;;12.93;2.38;;;;;;;;;;5073551;28;20056;-69
2022/10/30 10:02:42;;;;;;;17.63;2.97;;;;;;;;;;5073073;28;20606;-70
2022/10/30 10:05:23;;;;;;;15.52;3.13;;;;;;;;;;5071217;28;20058;-71
2022/10/30 10:07:59;;;;;;;15.25;2.58;;;;;;;;;;5073125;28;20054;-70
2022/10/30 10:10:26;;;;;;;9.55;2.28;;;;;;;;;;5073184;28;20063;-70
2022/10/30 10:12:53;;;;;;;15.00;2.75;;;;;;;;;;5072922;28;20052;-69
2022/10/30 10:15:40;;;;;;;13.98;2.72;;;;;;;;;;5073445;28;20063;-69
2022/10/30 10:18:28;;;;;;;12.68;2.95;;;;;;;;;;5073092;28;20059;-68
2022/10/30 10:20:58;;;;;;;14.30;2.58;;;;;;;;;;5072921;28;20048;-69
2022/10/30 10:23:43;;;;;;;12.93;3.05;;;;;;;;;;5072797;28;20051;-69
2022/10/30 10:26:16;;;;;;;13.55;2.78;;;;;;;;;;5071803;28;20052;-69
2022/10/30 10:28:55;;;;;;;13.63;3.55;;;;;;;;;;5072878;28;20045;-69
2022/10/30 10:31:25;;;;;;;17.02;2.55;;;;;;;;;;5072948;28;20055;-68
2022/10/30 10:33:58;;;;;;;12.23;2.00;;;;;;;;;;5072576;28;20418;-69
2022/10/30 10:36:39;;;;;;;11.85;2.38;;;;;;;;;;5073015;28;20051;-69
2022/10/30 10:39:19;;;;;;;11.15;2.15;;;;;;;;;;5072633;28;20484;-69
2022/10/30 10:42:00;;;;;;;13.05;2.55;;;;;;;;;;5073021;28;20070;-70
2022/10/30 10:44:29;;;;;;;9.63;2.38;;;;;;;;;;5072387;28;20056;-69
2022/10/30 10:47:00;;;;;;;13.93;2.10;;;;;;;;;;5072178;28;20049;-69
2022/10/30 10:49:35;;;;;;;9.93;1.85;;;;;;;;;;5071730;28;20076;-69
2022/10/30 10:52:22;;;;;;;13.93;2.85;;;;;;;;;;5072162;28;20053;-68
2022/10/30 10:54:54;;;;;;;13.60;2.03;;;;;;;;;;5072264;28;20052;-69
2022/10/30 10:57:41;;;;;;;14.15;1.77;;;;;;;;;;5072363;28;20060;-68
2022/10/30 11:00:13;;;;;;;13.63;2.05;;;;;;;;;;5072228;28;20052;-68
2022/10/30 11:02:39;;;;;;;10.52;1.90;;;;;;;;;;5072131;28;20053;-68
2022/10/30 11:05:11;;;;;;;9.15;1.80;;;;;;;;;;5069945;28;20059;-68
2022/10/30 11:07:47;;;;;;;12.32;2.38;;;;;;;;;;5072381;28;20044;-69
2022/10/30 11:10:15;;;;;;;13.75;2.90;;;;;;;;;;5071967;28;20580;-69
2022/10/30 11:12:42;;;;;;;10.32;2.65;;;;;;;;;;5071832;28;20583;-68
2022/10/30 11:15:20;;;;;;;10.70;2.30;;;;;;;;;;5054964;28;20057;-68
2022/10/30 11:18:07;;;;;;;14.48;2.72;;;;;;;;;;5071822;28;20052;-67
2022/10/30 11:20:43;;;;;;;8.98;2.30;;;;;;;;;;5071864;28;20048;-69
2022/10/30 11:23:32;;;;;;;11.60;2.80;;;;;;;;;;5072204;28;20060;-69
2022/10/30 11:25:58;;;;;;;16.55;2.47;;;;;;;;;;5071946;28;20136;-68
2022/10/30 11:28:34;;;;;;;10.32;2.55;;;;;;;;;;5071902;28;20045;-69
2022/10/30 11:31:19;;;;;;;18.20;3.13;;;;;;;;;;5071763;28;20393;-69
2022/10/30 11:33:45;;;;;;;14.63;3.03;;;;;;;;;;5071536;28;20484;-69
2022/10/30 11:36:16;;;;;;;14.07;3.03;;;;;;;;;;5071502;28;20048;-70
2022/10/30 11:38:42;;;;;;;11.75;2.88;;;;;;;;;;5071715;28;20291;-71
2022/10/30 11:41:09;;;;;;;13.38;2.25;;;;;;;;;;5058748;28;20044;-71
2022/10/30 11:43:36;;;;;;;11.33;2.10;;;;;;;;;;5061021;28;20041;-71
2022/10/30 11:46:08;;;;;;;13.05;2.08;;;;;;;;;;5061299;28;20053;-72
2022/10/30 11:48:36;;;;;;;8.60;1.95;;;;;;;;;;5051022;28;20044;-72
2022/10/30 11:51:03;;;;;;;17.42;2.28;;;;;;;;;;5057278;28;20083;-71
2022/10/30 11:53:33;;;;;;;9.48;1.77;;;;;;;;;;5064599;28;20045;-71
2022/10/30 11:56:01;;;;;;;11.43;2.30;;;;;;;;;;5049600;28;20049;-69
2022/10/30 11:58:29;;;;;;;12.43;2.90;;;;;;;;;;5050768;28;20051;-68
2022/10/30 12:01:01;;;;;;;8.32;1.73;;;;;;;;;;5050667;28;20051;-70
2022/10/30 12:03:29;;;;;;;9.13;2.03;;;;;;;;;;5050754;28;20052;-68
2022/10/30 12:06:16;;;;;;;7.65;2.35;;;;;;;;;;5048862;28;20127;-74
2022/10/30 12:09:14;;;;;;;10.52;2.75;;;;;;;;;;5051098;28;20055;-74
2022/10/30 12:11:44;;;;;;;9.57;3.50;;;;;;;;;;5041144;28;20515;-76
2022/10/30 12:14:25;;;;;;;8.13;1.95;;;;;;;;;;5062422;28;20048;-75
2022/10/30 12:16:54;;;;;;;11.23;2.20;;;;;;;;;;5070547;28;20044;-72
2022/10/30 12:19:22;;;;;;;9.52;1.83;;;;;;;;;;5070252;28;20066;-75
2022/10/30 12:21:49;;;;;;;8.32;1.70;;;;;;;;;;5059198;28;20052;-76
2022/10/30 12:24:18;;;;;;;6.60;1.40;;;;;;;;;;5049136;28;20435;-75
2022/10/30 12:26:46;;;;;;;6.63;1.30;;;;;;;;;;5050138;28;20049;-78
2022/10/30 12:29:14;;;;;;;7.60;1.58;;;;;;;;;;5050480;28;20519;-74
2022/10/30 12:31:59;;;;;;;9.38;1.48;;;;;;;;;;5071168;28;20051;-76
2022/10/30 12:34:29;;;;;;;6.95;1.40;;;;;;;;;;5070965;28;20477;-76
2022/10/30 12:37:01;;;;;;;6.45;1.30;;;;;;;;;;5062117;28;20123;-76
2022/10/30 12:39:40;;;;;;;5.03;1.20;;;;;;;;;;5059736;28;20119;-78
2022/10/30 12:42:10;;;;;;;3.97;1.20;;;;;;;;;;5065665;28;20045;-77
2022/10/30 12:44:40;;;;;;;4.88;1.65;;;;;;;;;;5049792;28;20523;-78
2022/10/30 12:47:11;;;;;;;8.23;3.15;;;;;;;;;;5069211;28;20047;-76
2022/10/30 12:49:41;;;;;;;5.70;1.90;;;;;;;;;;5071413;28;20041;-77
2022/10/30 12:52:10;;;;;;;8.18;2.38;;;;;;;;;;5068409;28;20051;-79
2022/10/30 12:54:40;;;;;;;6.85;2.67;;;;;;;;;;5048354;28;20092;-78
2022/10/30 12:57:09;;;;;;;7.25;3.45;;;;;;;;;;5057737;28;20131;-78
2022/10/30 12:59:38;;;;;;;10.40;2.10;;;;;;;;;;5049632;28;20051;-79
2022/10/30 13:02:08;;;;;;;10.00;1.58;;;;;;;;;;5050803;28;20049;-80
2022/10/30 13:04:39;;;;;;;9.85;1.38;;;;;;;;;;5050987;28;20069;-71
2022/10/30 13:07:08;;;;;;;9.85;1.95;;;;;;;;;;5051315;28;20060;-72
2022/10/30 13:09:45;;;;;;;9.95;1.42;;;;;;;;;;5050715;28;20049;-78
2022/10/30 13:12:24;;;;;;;10.02;1.75;;;;;;;;;;5051846;28;20049;-78
2022/10/30 13:14:55;;;;;;;9.15;1.60;;;;;;;;;;5071804;28;20047;-79
2022/10/30 13:17:22;;;;;;;10.70;1.80;;;;;;;;;;5074368;28;20048;-79
2022/10/30 13:19:49;;;;;;;7.78;1.60;;;;;;;;;;5074542;28;20051;-78
2022/10/30 13:22:29;;;;;;;10.10;2.22;;;;;;;;;;5074600;28;20055;-78
2022/10/30 13:24:59;;;;;;;9.05;1.50;;;;;;;;;;5074608;28;20052;-78
2022/10/30 13:27:32;;;;;;;6.60;1.67;;;;;;;;;;5074620;28;20644;-78
2022/10/30 13:30:07;;;;;;;8.52;1.77;;;;;;;;;;5074474;28;20045;-80
2022/10/30 13:32:34;;;;;;;10.27;2.00;;;;;;;;;;5074362;28;20059;-77
2022/10/30 13:35:19;;;;;;;11.60;2.03;;;;;;;;;;5074239;28;20420;-76
2022/10/30 13:37:52;;;;;;;12.18;1.80;;;;;;;;;;5074334;28;20514;-75
2022/10/30 13:40:28;;;;;;;10.70;1.98;;;;;;;;;;5074530;28;20053;-76
2022/10/30 13:42:57;;;;;;;8.68;1.63;;;;;;;;;;5074794;28;20062;-76
2022/10/30 13:45:23;;;;;;;13.90;2.65;;;;;;;;;;5073732;28;20526;-76
2022/10/30 13:47:50;;;;;;;8.20;1.80;;;;;;;;;;5058445;28;20568;-76
2022/10/30 13:50:34;;;;;;;10.02;2.08;;;;;;;;;;5055608;28;20053;-77
2022/10/30 13:53:03;;;;;;;17.90;2.80;;;;;;;;;;5060157;28;20061;-76
2022/10/30 13:55:33;;;;;;;11.73;2.55;;;;;;;;;;5053608;28;20055;-77
2022/10/30 13:58:18;;;;;;;12.48;2.38;;;;;;;;;;5065939;28;20076;-78
2022/10/30 14:00:45;;;;;;;10.23;2.50;;;;;;;;;;5063112;28;20053;-78
2022/10/30 14:03:18;;;;;;;14.68;4.75;;;;;;;;;;5053580;28;20049;-78
2022/10/30 14:05:56;;;;;;;16.70;6.60;;;;;;;;;;5054101;28;20390;-77
2022/10/30 14:08:26;;;;;;;11.23;3.80;;;;;;;;;;5073894;28;20052;-77
2022/10/30 14:10:57;;;;;;;9.63;3.05;;;;;;;;;;5069435;28;20073;-77
2022/10/30 14:13:46;;;;;;;13.55;3.08;;;;;;;;;;5058944;28;20044;-77
2022/10/30 14:16:37;;;;;;;12.85;1.98;;;;;;;;;;5052004;28;20076;-77
2022/10/30 14:19:05;;;;;;;7.82;1.73;;;;;;;;;;5073065;28;20130;-77
2022/10/30 14:21:42;;;;;;;9.80;2.03;;;;;;;;;;5073262;28;20072;-78
2022/10/30 14:24:12;;;;;;;11.75;1.90;;;;;;;;;;5065473;28;20084;-76
2022/10/30 14:26:42;;;;;;;9.60;2.38;;;;;;;;;;5069894;28;20044;-77
2022/10/30 14:29:36;;;;;;;10.13;2.28;;;;;;;;;;5057229;28;20512;-76
2022/10/30 14:32:14;;;;;;;8.95;1.90;;;;;;;;;;5052831;28;20420;-76
2022/10/30 14:34:49;;;;;;;9.10;2.20;;;;;;;;;;5061571;28;20041;-78
2022/10/30 14:37:22;;;;;;;8.18;2.00;;;;;;;;;;5073098;28;20127;-78
2022/10/30 14:39:49;;;;;;;9.23;2.00;;;;;;;;;;5072989;28;20127;-77
2022/10/30 14:42:15;;;;;;;;;;;;;;;;;;5073699;28;20054;-78
2022/10/30 14:44:48;;;;;;;7.70;2.30;;;;;;;;;;5072459;28;19928;-78
2022/10/30 14:47:33;;;;;;;11.25;2.33;;;;;;;;;;5072194;28;20041;-78